createdAt,value
2022-08-28T00:00:32.413Z,21.70
2022-08-28T00:03:15.718Z,21.66
2022-08-28T00:05:51.114Z,21.60
2022-08-28T00:08:24.714Z,21.60
2022-08-28T00:10:58.514Z,21.60
2022-08-28T00:13:31.860Z,21.52
2022-08-28T00:16:06.799Z,21.50
2022-08-28T00:18:40.027Z,21.60
2022-08-28T00:21:14.397Z,21.70
2022-08-28T00:23:48.425Z,21.80
2022-08-28T00:26:35.608Z,21.90
2022-08-28T00:29:14.703Z,21.98
2022-08-28T00:31:48.052Z,22.00
2022-08-28T00:34:21.326Z,22.00
2022-08-28T00:37:06.623Z,21.82
2022-08-28T00:41:05.642Z,21.70
2022-08-28T00:44:13.656Z,21.58
2022-08-28T00:46:50.372Z,21.42
2022-08-28T00:49:29.073Z,21.40
2022-08-28T00:52:11.919Z,21.40
2022-08-28T00:54:58.613Z,21.30
2022-08-28T00:57:37.720Z,21.30
2022-08-28T01:00:20.755Z,21.30
2022-08-28T01:02:54.516Z,21.26
2022-08-28T01:05:29.860Z,21.20
2022-08-28T01:08:05.053Z,21.20
2022-08-28T01:10:40.935Z,21.20
2022-08-28T01:13:16.351Z,21.20
2022-08-28T01:15:51.407Z,21.20
2022-08-28T01:18:26.331Z,21.20
2022-08-28T01:21:12.830Z,21.20
2022-08-28T01:24:00.945Z,21.20
2022-08-28T01:26:34.662Z,21.16
2022-08-28T01:29:10.048Z,21.10
2022-08-28T01:31:44.528Z,21.10
2022-08-28T01:34:17.877Z,21.10
2022-08-28T01:36:51.249Z,21.10
2022-08-28T01:39:54.327Z,21.10
2022-08-28T01:42:28.780Z,21.10
2022-08-28T01:45:02.123Z,21.10
2022-08-28T01:47:35.385Z,21.10
2022-08-28T01:50:13.346Z,21.02
2022-08-28T01:52:47.587Z,21.00
2022-08-28T01:55:21.535Z,21.00
2022-08-28T01:57:57.087Z,21.00
2022-08-28T02:00:31.487Z,21.00
2022-08-28T02:03:04.945Z,21.00
2022-08-28T02:05:39.980Z,21.00
2022-08-28T02:08:14.086Z,20.94
2022-08-28T02:10:50.362Z,20.90
2022-08-28T02:13:25.614Z,20.96
2022-08-28T02:15:59.547Z,20.90
2022-08-28T02:18:34.416Z,20.90
2022-08-28T02:21:08.970Z,20.90
2022-08-28T02:23:45.491Z,20.98
2022-08-28T02:26:20.949Z,21.00
2022-08-28T02:28:54.687Z,21.00
2022-08-28T02:31:28.957Z,21.00
2022-08-28T02:34:02.476Z,21.00
2022-08-28T02:36:36.137Z,21.00
2022-08-28T02:39:09.633Z,21.00
2022-08-28T02:41:43.324Z,21.00
2022-08-28T02:44:17.432Z,21.00
2022-08-28T02:46:50.680Z,20.98
2022-08-28T02:49:24.253Z,20.90
2022-08-28T02:51:57.747Z,20.90
2022-08-28T02:54:31.245Z,20.90
2022-08-28T02:57:04.639Z,20.90
2022-08-28T02:59:38.009Z,20.90
2022-08-28T03:02:11.368Z,20.90
2022-08-28T03:04:44.895Z,20.90
2022-08-28T03:07:19.556Z,20.90
2022-08-28T03:09:52.774Z,20.84
2022-08-28T03:12:26.149Z,20.88
2022-08-28T03:14:59.383Z,20.84
2022-08-28T03:17:32.971Z,20.84
2022-08-28T03:20:07.941Z,20.84
2022-08-28T03:22:59.871Z,20.88
2022-08-28T03:25:34.296Z,20.90
2022-08-28T03:28:07.676Z,20.90
2022-08-28T03:30:43.561Z,20.90
2022-08-28T03:33:16.787Z,20.90
2022-08-28T03:35:50.523Z,20.90
2022-08-28T03:38:25.345Z,20.90
2022-08-28T03:40:59.158Z,21.00
2022-08-28T03:43:33.931Z,21.00
2022-08-28T03:46:09.794Z,21.00
2022-08-28T03:48:44.895Z,20.90
2022-08-28T03:51:29.433Z,20.90
2022-08-28T03:54:04.975Z,20.92
2022-08-28T03:56:38.213Z,20.90
2022-08-28T03:59:12.570Z,20.90
2022-08-28T04:01:45.836Z,20.90
2022-08-28T04:04:19.119Z,20.90
2022-08-28T04:06:52.368Z,20.90
2022-08-28T04:09:25.658Z,20.90
2022-08-28T04:11:58.976Z,20.90
2022-08-28T04:14:32.335Z,20.90
2022-08-28T04:17:06.329Z,20.90
2022-08-28T04:19:40.324Z,20.90
2022-08-28T04:22:14.086Z,21.00
2022-08-28T04:24:47.292Z,21.00
2022-08-28T04:27:20.489Z,21.00
2022-08-28T04:29:53.674Z,21.00
2022-08-28T04:32:26.947Z,21.00
2022-08-28T04:35:00.392Z,21.00
2022-08-28T04:37:33.910Z,21.00
2022-08-28T04:40:10.828Z,21.10
2022-08-28T04:42:45.234Z,21.10
2022-08-28T04:45:18.625Z,21.18
2022-08-28T04:47:52.385Z,21.20
2022-08-28T04:50:25.562Z,21.20
2022-08-28T04:52:59.349Z,21.20
2022-08-28T04:55:50.042Z,21.30
2022-08-28T04:58:26.343Z,21.30
2022-08-28T05:00:59.757Z,21.40
2022-08-28T05:03:33.669Z,21.50
2022-08-28T05:06:07.689Z,21.50
2022-08-28T05:08:40.873Z,21.52
2022-08-28T05:11:33.383Z,21.60
2022-08-28T05:14:15.385Z,21.70
2022-08-28T05:16:52.931Z,21.70
2022-08-28T05:19:27.828Z,21.78
2022-08-28T05:22:01.685Z,21.80
2022-08-28T05:24:34.978Z,21.80
2022-08-28T05:27:11.132Z,21.80
2022-08-28T05:29:44.374Z,21.80
2022-08-28T05:32:17.613Z,21.90
2022-08-28T05:34:50.873Z,21.90
2022-08-28T05:37:24.241Z,21.90
2022-08-28T05:39:57.575Z,21.98
2022-08-28T05:42:31.886Z,22.00
2022-08-28T05:45:09.030Z,22.00
2022-08-28T05:47:43.489Z,22.00
2022-08-28T05:50:17.070Z,22.02
2022-08-28T05:52:50.449Z,22.10
2022-08-28T05:55:24.070Z,22.10
2022-08-28T05:58:17.742Z,22.16
2022-08-28T06:00:50.907Z,22.20
2022-08-28T06:03:24.874Z,22.20
2022-08-28T06:06:00.382Z,22.20
2022-08-28T06:08:34.820Z,22.30
2022-08-28T06:11:10.206Z,22.30
2022-08-28T06:13:43.591Z,22.38
2022-08-28T06:16:18.061Z,22.40
2022-08-28T06:18:52.121Z,22.40
2022-08-28T06:21:25.477Z,22.50
2022-08-28T06:23:58.937Z,22.60
2022-08-28T06:26:32.908Z,22.60
2022-08-28T06:29:09.946Z,22.70
2022-08-28T06:31:43.488Z,22.80
2022-08-28T07:11:52.351Z,25.84
2022-08-28T07:14:22.071Z,26.00
2022-08-28T07:16:52.047Z,25.80
2022-08-28T07:19:22.650Z,25.50
2022-08-28T07:21:52.183Z,25.28
2022-08-28T07:24:22.879Z,25.10
2022-08-28T07:26:55.430Z,25.00
2022-08-28T07:29:24.171Z,24.90
2022-08-28T07:31:58.678Z,24.92
2022-08-28T07:34:28.430Z,24.86
2022-08-28T07:37:03.792Z,24.80
2022-08-28T07:39:35.065Z,24.70
2022-08-28T07:42:05.748Z,24.66
2022-08-28T07:44:59.741Z,24.60
2022-08-28T07:47:33.464Z,24.60
2022-08-28T07:50:24.744Z,24.64
2022-08-28T07:52:53.837Z,24.70
2022-08-28T07:55:23.541Z,24.70
2022-08-28T07:57:53.402Z,24.60
2022-08-28T08:00:25.124Z,24.60
2022-08-28T08:02:54.256Z,24.60
2022-08-28T08:05:23.427Z,24.60
2022-08-28T08:07:52.631Z,24.68
2022-08-28T08:10:23.099Z,24.74
2022-08-28T08:12:52.346Z,24.92
2022-08-28T08:15:22.492Z,25.20
2022-08-28T08:17:51.697Z,25.30
2022-08-28T08:20:21.387Z,25.40
2022-08-28T08:22:50.498Z,25.50
2022-08-28T08:25:19.800Z,25.62
2022-08-28T08:27:50.516Z,25.80
2022-08-28T08:30:20.034Z,25.86
2022-08-28T08:32:50.047Z,25.86
2022-08-28T08:35:19.830Z,25.90
2022-08-28T08:37:49.268Z,25.90
2022-08-28T08:40:19.997Z,25.90
2022-08-28T08:42:56.443Z,26.00
2022-08-28T08:45:26.065Z,26.20
2022-08-28T08:47:57.210Z,26.32
2022-08-28T08:50:32.685Z,26.50
2022-08-28T08:53:22.880Z,26.58
2022-08-28T08:55:56.260Z,26.66
2022-08-28T08:58:34.355Z,26.80
2022-08-28T09:01:19.172Z,26.80
2022-08-28T09:03:59.923Z,26.70
2022-08-28T09:06:41.875Z,26.60
2022-08-28T09:09:29.019Z,26.60
2022-08-28T09:12:03.034Z,26.70
2022-08-28T09:14:47.891Z,26.86
2022-08-28T09:17:22.049Z,26.98
2022-08-28T09:19:51.367Z,27.00
2022-08-28T09:22:22.100Z,26.90
2022-08-28T09:24:51.522Z,26.80
2022-08-28T09:27:29.081Z,26.80
2022-08-28T09:30:07.703Z,26.84
2022-08-28T09:32:43.256Z,26.90
2022-08-28T09:35:27.305Z,27.04
2022-08-28T09:38:15.784Z,27.30
2022-08-28T09:41:03.339Z,27.54
2022-08-28T10:12:39.501Z,29.64
2022-08-28T10:15:25.270Z,29.80
2022-08-28T10:18:37.063Z,29.70
2022-08-28T10:21:22.828Z,29.50
2022-08-28T10:24:28.518Z,29.40
2022-08-28T10:27:16.546Z,29.20
2022-08-28T10:30:07.767Z,29.16
2022-08-28T10:33:28.559Z,29.20
2022-08-28T10:36:09.144Z,29.40
2022-08-28T10:39:19.216Z,29.50
2022-08-28T10:41:57.621Z,29.68
2022-08-28T10:44:41.997Z,29.70
2022-08-28T10:47:19.261Z,29.60
2022-08-28T10:50:02.013Z,29.60
2022-08-28T10:52:42.134Z,29.60
2022-08-28T10:55:26.348Z,29.70
2022-08-28T10:58:05.341Z,29.68
2022-08-28T11:01:03.441Z,29.78
2022-08-28T11:03:45.244Z,29.86
2022-08-28T11:06:27.637Z,29.90
2022-08-28T11:09:24.216Z,29.80
2022-08-28T11:12:02.518Z,29.80
2022-08-28T11:14:47.762Z,29.60
2022-08-28T11:17:42.258Z,29.20
2022-08-28T11:20:22.857Z,28.80
2022-08-28T11:23:07.477Z,28.40
2022-08-28T11:25:51.689Z,28.10
2022-08-28T11:28:48.391Z,27.90
2022-08-28T11:31:37.001Z,27.90
2022-08-28T11:34:31.020Z,27.98
2022-08-28T11:37:05.669Z,28.00
2022-08-28T11:39:39.080Z,28.10
2022-08-28T11:42:38.480Z,28.28
2022-08-28T11:45:45.746Z,28.30
2022-08-28T11:48:49.825Z,28.38
2022-08-28T11:52:09.135Z,28.54
2022-08-28T11:54:57.151Z,28.78
2022-08-28T11:57:52.967Z,29.24
2022-08-28T12:00:49.539Z,29.88
2022-08-28T12:03:33.215Z,30.38
2022-08-28T12:06:08.482Z,31.16
2022-08-28T12:09:15.587Z,31.38
2022-08-28T12:12:05.688Z,31.36
2022-08-28T15:01:25.968Z,23.12
2022-08-28T15:04:29.149Z,22.82
2022-08-28T15:07:06.545Z,22.70
2022-08-28T15:09:46.022Z,22.50
2022-08-28T15:12:23.441Z,22.30
2022-08-28T15:14:58.487Z,22.26
2022-08-28T15:17:34.725Z,22.20
2022-08-28T15:20:11.565Z,22.24
2022-08-28T15:22:45.329Z,22.30
2022-08-28T15:25:19.301Z,22.22
2022-08-28T15:27:53.408Z,22.16
2022-08-28T15:30:27.233Z,22.10
2022-08-28T15:33:00.895Z,22.00
2022-08-28T15:35:35.714Z,21.90
2022-08-28T15:38:10.517Z,21.90
2022-08-28T15:41:05.409Z,21.82
2022-08-28T15:43:39.286Z,21.80
2022-08-28T15:46:17.392Z,21.78
2022-08-28T15:48:54.418Z,21.70
2022-08-28T15:51:29.370Z,21.70
2022-08-28T15:54:03.093Z,21.68
2022-08-28T15:56:37.629Z,21.60
2022-08-28T15:59:11.687Z,21.60
2022-08-28T16:01:45.506Z,21.60
2022-08-28T16:04:20.690Z,21.60
2022-08-28T16:07:00.687Z,21.56
2022-08-28T16:09:34.376Z,21.50
2022-08-28T16:12:08.842Z,21.50
2022-08-28T16:14:43.229Z,21.50
2022-08-28T16:17:16.881Z,21.50
2022-08-28T16:19:50.662Z,21.40
2022-08-28T16:22:23.900Z,21.30
2022-08-28T16:24:57.372Z,21.18
2022-08-28T16:27:30.713Z,21.10
2022-08-28T16:30:04.848Z,21.00
2022-08-28T16:32:38.356Z,20.94
2022-08-28T16:35:15.284Z,20.90
2022-08-28T16:37:48.806Z,20.90
2022-08-28T16:40:23.337Z,20.90
2022-08-28T16:42:58.817Z,20.80
2022-08-28T16:45:32.430Z,20.80
2022-08-28T16:48:06.607Z,20.80
2022-08-28T16:50:40.564Z,20.80
2022-08-28T16:53:15.137Z,20.80
2022-08-28T16:55:53.805Z,20.80
2022-08-28T16:58:27.526Z,20.90
2022-08-28T17:01:02.070Z,20.90
2022-08-28T17:03:35.639Z,20.90
2022-08-28T17:06:15.229Z,20.84
2022-08-28T17:08:55.850Z,20.80
2022-08-28T17:11:31.184Z,20.80
2022-08-28T17:14:06.422Z,20.80
2022-08-28T17:16:39.860Z,20.80
2022-08-28T17:19:14.027Z,20.80
2022-08-28T17:22:05.535Z,20.80
2022-08-28T17:24:40.027Z,20.80
2022-08-28T17:27:14.643Z,20.80
2022-08-28T17:29:56.856Z,20.80
2022-08-28T17:32:30.341Z,20.80
2022-08-28T17:35:05.525Z,20.80
2022-08-28T17:37:40.791Z,20.80
2022-08-28T17:40:17.654Z,20.72
2022-08-28T17:42:51.556Z,20.70
2022-08-28T17:45:25.141Z,20.70
2022-08-28T17:47:58.560Z,20.70
2022-08-28T17:50:31.916Z,20.70
2022-08-28T17:53:05.566Z,20.70
2022-08-28T17:55:47.816Z,20.70
2022-08-28T17:58:21.239Z,20.68
2022-08-28T18:00:54.842Z,20.66
2022-08-28T18:03:28.452Z,20.60
2022-08-28T18:06:02.917Z,20.60
2022-08-28T18:08:36.393Z,20.60
2022-08-28T18:11:10.125Z,20.60
2022-08-28T18:13:43.977Z,20.60
2022-08-28T18:16:17.550Z,20.56
2022-08-28T18:18:51.107Z,20.52
2022-08-28T18:21:24.564Z,20.58
2022-08-28T18:23:57.987Z,20.54
2022-08-28T18:26:32.439Z,20.54
2022-08-28T18:29:06.856Z,20.50
2022-08-28T18:31:42.913Z,20.50
2022-08-28T18:34:16.367Z,20.50
2022-08-28T18:36:48.990Z,20.50
2022-08-28T18:39:29.280Z,20.44
2022-08-28T18:42:03.441Z,20.40
2022-08-28T18:44:36.823Z,20.40
2022-08-28T18:47:10.290Z,20.40
2022-08-28T18:49:43.511Z,20.50
2022-08-28T18:52:19.017Z,20.50
2022-08-28T18:54:53.076Z,20.50
2022-08-28T18:57:32.829Z,20.50
2022-08-28T19:00:07.923Z,20.50
2022-08-28T19:02:41.862Z,20.50
2022-08-28T19:05:16.103Z,20.48
2022-08-28T19:07:49.944Z,20.40
2022-08-28T19:10:33.521Z,20.40
2022-08-28T19:13:08.600Z,20.40
2022-08-28T19:15:42.861Z,20.50
2022-08-28T19:18:16.170Z,20.50
2022-08-28T19:20:52.024Z,20.50
2022-08-28T19:23:33.096Z,20.50
2022-08-28T19:26:07.539Z,20.50
2022-08-28T19:28:43.623Z,20.50
2022-08-28T19:31:17.580Z,20.50
2022-08-28T19:33:52.222Z,20.50
2022-08-28T19:36:29.728Z,20.50
2022-08-28T19:39:03.055Z,20.50
2022-08-28T19:41:36.940Z,20.50
2022-08-28T19:44:11.880Z,20.50
2022-08-28T19:46:45.499Z,20.50
2022-08-28T19:49:18.827Z,20.54
2022-08-28T19:51:52.070Z,20.58
2022-08-28T19:54:25.453Z,20.50
2022-08-28T19:56:59.499Z,20.50
2022-08-28T19:59:33.361Z,20.50
2022-08-28T20:02:06.969Z,20.50
2022-08-28T20:04:40.381Z,20.50
2022-08-28T20:07:13.835Z,20.40
2022-08-28T20:09:47.289Z,20.40
2022-08-28T20:12:20.993Z,20.40
2022-08-28T20:14:54.541Z,20.48
2022-08-28T20:17:27.856Z,20.40
2022-08-28T20:20:03.961Z,20.40
2022-08-28T20:22:38.441Z,20.40
2022-08-28T20:25:13.621Z,20.30
2022-08-28T20:27:48.566Z,20.30
2022-08-28T20:30:22.440Z,20.30
2022-08-28T20:32:56.034Z,20.30
2022-08-28T20:35:29.630Z,20.30
2022-08-28T20:38:03.264Z,20.30
2022-08-28T20:40:45.740Z,20.30
2022-08-28T20:43:19.329Z,20.30
2022-08-28T20:45:53.605Z,20.30
2022-08-28T20:48:27.777Z,20.30
2022-08-28T20:51:01.492Z,20.38
2022-08-28T20:53:37.331Z,20.40
2022-08-28T20:56:12.915Z,20.40
2022-08-28T20:58:46.495Z,20.40
2022-08-28T21:01:20.134Z,20.40
2022-08-28T21:03:53.784Z,20.30
2022-08-28T21:06:27.508Z,20.30
2022-08-28T21:09:15.663Z,20.30
2022-08-28T21:11:50.123Z,20.40
2022-08-28T21:14:26.119Z,20.40
2022-08-28T21:17:00.251Z,20.32
2022-08-28T21:19:40.701Z,20.30
2022-08-28T21:22:16.964Z,20.30
2022-08-28T21:24:56.630Z,20.20
2022-08-28T21:27:31.455Z,20.20
2022-08-28T21:30:19.493Z,20.20
2022-08-28T21:32:54.451Z,20.14
2022-08-28T21:35:32.568Z,20.10
2022-08-28T21:38:17.746Z,20.10
2022-08-28T21:41:22.514Z,20.20
2022-08-28T21:44:12.857Z,20.20
2022-08-28T21:47:14.890Z,20.20
2022-08-28T21:50:21.749Z,20.28
2022-08-28T21:53:02.741Z,20.22
2022-08-28T21:55:43.800Z,20.18
2022-08-28T21:58:20.242Z,20.20
2022-08-28T22:00:59.628Z,20.30
2022-08-28T22:03:35.358Z,20.20
2022-08-28T22:06:16.089Z,20.00
2022-08-28T22:08:52.874Z,19.90
2022-08-28T22:11:27.975Z,19.80
2022-08-28T22:14:02.744Z,19.70
2022-08-28T22:16:36.322Z,19.60
2022-08-28T22:19:09.685Z,19.50
2022-08-28T22:22:04.283Z,19.50
2022-08-28T22:24:37.683Z,19.50
2022-08-28T22:27:13.618Z,19.48
2022-08-28T22:29:47.104Z,19.40
2022-08-28T22:32:25.585Z,19.30
2022-08-28T22:34:59.216Z,19.30
2022-08-28T22:37:35.310Z,19.28
2022-08-28T22:40:13.548Z,19.26
2022-08-28T22:42:47.556Z,19.28
2022-08-28T22:45:41.927Z,19.30
2022-08-28T22:48:22.835Z,19.40
2022-08-28T22:51:17.030Z,19.40
2022-08-28T22:54:04.993Z,19.40
2022-08-28T22:56:40.013Z,19.40
2022-08-28T22:59:37.096Z,19.40
2022-08-28T23:02:13.230Z,19.32
2022-08-28T23:04:46.808Z,19.30
2022-08-28T23:07:25.974Z,19.20
2022-08-28T23:09:59.470Z,19.02
2022-08-28T23:12:34.539Z,18.90
2022-08-28T23:15:11.883Z,18.80
2022-08-28T23:17:45.741Z,18.70
2022-08-28T23:20:24.029Z,18.70
2022-08-28T23:23:00.531Z,18.60
2022-08-28T23:25:34.493Z,18.52
2022-08-28T23:28:08.406Z,18.50
2022-08-28T23:30:44.098Z,18.44
2022-08-28T23:33:23.737Z,18.40
2022-08-28T23:35:57.502Z,18.40
2022-08-28T23:38:30.896Z,18.30
2022-08-28T23:41:04.325Z,18.20
2022-08-28T23:43:39.351Z,18.10
2022-08-28T23:46:15.636Z,18.10
2022-08-28T23:48:50.021Z,18.00
2022-08-28T23:51:23.880Z,17.90
2022-08-28T23:53:58.959Z,17.90
2022-08-28T23:56:40.569Z,17.80
2022-08-28T23:59:14.158Z,17.80
